createdAt,value
2022-11-28T00:01:28.098Z,3.40
2022-11-28T00:03:55.647Z,3.10
2022-11-28T00:06:22.504Z,3.30
2022-11-28T00:08:49.192Z,3.15
2022-11-28T00:11:16.998Z,3.20
2022-11-28T00:13:44.134Z,3.45
2022-11-28T00:16:15.856Z,2.97
2022-11-28T00:18:42.464Z,3.33
2022-11-28T00:21:12.438Z,3.17
2022-11-28T00:23:39.764Z,3.25
2022-11-28T00:26:10.394Z,3.25
2022-11-28T00:28:37.825Z,3.20
2022-11-28T00:31:04.845Z,3.28
2022-11-28T00:33:32.816Z,3.17
2022-11-28T00:36:01.694Z,3.05
2022-11-28T00:38:29.315Z,3.30
2022-11-28T00:41:00.742Z,3.13
2022-11-28T00:43:28.205Z,3.03
2022-11-28T00:45:54.732Z,3.25
2022-11-28T00:48:21.384Z,3.40
2022-11-28T00:50:48.034Z,3.08
2022-11-28T00:53:14.528Z,3.03
2022-11-28T00:55:41.544Z,3.38
2022-11-28T00:58:08.163Z,3.17
2022-11-28T01:00:34.921Z,3.47
2022-11-28T01:03:01.487Z,3.08
2022-11-28T01:05:27.914Z,3.27
2022-11-28T01:07:54.547Z,3.58
2022-11-28T01:10:21.554Z,3.22
2022-11-28T01:12:48.060Z,3.60
2022-11-28T01:15:14.552Z,3.10
2022-11-28T01:17:41.002Z,3.40
2022-11-28T01:20:08.533Z,3.67
2022-11-28T01:22:35.091Z,3.30
2022-11-28T01:25:01.556Z,3.38
2022-11-28T01:27:28.075Z,3.10
2022-11-28T01:29:54.541Z,3.17
2022-11-28T01:32:21.038Z,2.90
2022-11-28T01:34:47.616Z,3.10
2022-11-28T01:37:14.042Z,2.55
2022-11-28T01:39:40.567Z,2.47
2022-11-28T01:42:07.270Z,2.50
2022-11-28T01:44:33.696Z,2.55
2022-11-28T01:47:00.181Z,2.60
2022-11-28T01:49:37.218Z,2.50
2022-11-28T01:52:07.681Z,2.47
2022-11-28T01:54:37.463Z,2.80
2022-11-28T01:57:13.353Z,2.70
2022-11-28T01:59:49.112Z,2.33
2022-11-28T02:02:25.081Z,2.38
2022-11-28T02:04:52.794Z,2.85
2022-11-28T02:07:20.378Z,2.40
2022-11-28T02:09:46.904Z,2.30
2022-11-28T02:12:28.456Z,2.33
2022-11-28T02:15:22.218Z,2.95
2022-11-28T02:18:09.905Z,3.10
2022-11-28T02:21:06.439Z,2.50
2022-11-28T02:23:46.700Z,2.75
2022-11-28T02:26:35.748Z,2.83
2022-11-28T02:29:34.050Z,2.75
2022-11-28T02:32:51.855Z,2.63
2022-11-28T02:35:42.404Z,2.57
2022-11-28T02:38:31.864Z,2.47
2022-11-28T02:41:06.605Z,2.60
2022-11-28T02:43:40.791Z,2.63
2022-11-28T02:46:15.580Z,2.55
2022-11-28T02:48:50.895Z,2.50
2022-11-28T02:51:31.516Z,2.50
2022-11-28T02:54:00.301Z,2.70
2022-11-28T02:56:26.851Z,2.40
2022-11-28T02:58:53.770Z,2.58
2022-11-28T03:01:29.482Z,2.57
2022-11-28T03:04:01.743Z,2.75
2022-11-28T03:06:46.287Z,2.35
2022-11-28T03:09:31.719Z,2.53
2022-11-28T03:12:26.366Z,2.38
2022-11-28T03:14:59.990Z,2.60
2022-11-28T03:17:54.476Z,2.17
2022-11-28T03:20:28.689Z,1.83
2022-11-28T03:23:11.812Z,2.33
2022-11-28T03:25:50.596Z,2.38
2022-11-28T03:28:20.045Z,2.60
2022-11-28T03:30:57.256Z,2.33
2022-11-28T03:33:27.785Z,2.55
2022-11-28T03:36:04.176Z,2.60
2022-11-28T03:38:36.330Z,2.40
2022-11-28T03:41:12.277Z,2.30
2022-11-28T03:43:45.582Z,2.72
2022-11-28T03:46:15.995Z,2.65
2022-11-28T03:48:48.038Z,2.53
2022-11-28T03:51:22.032Z,2.67
2022-11-28T03:53:59.912Z,2.70
2022-11-28T03:56:54.093Z,2.60
2022-11-28T03:59:26.922Z,2.83
2022-11-28T04:02:06.213Z,2.83
2022-11-28T04:05:11.621Z,2.92
2022-11-28T04:08:06.001Z,2.50
2022-11-28T04:11:03.452Z,2.70
2022-11-28T04:13:34.981Z,2.75
2022-11-28T04:16:13.844Z,3.47
2022-11-28T04:18:52.606Z,3.33
2022-11-28T04:21:57.076Z,3.03
2022-11-28T04:24:30.375Z,3.50
2022-11-28T04:27:10.334Z,3.05
2022-11-28T04:29:55.019Z,3.13
2022-11-28T04:32:23.496Z,2.67
2022-11-28T04:34:55.345Z,3.27
2022-11-28T04:37:25.179Z,2.67
2022-11-28T04:39:52.547Z,2.80
2022-11-28T04:42:37.541Z,2.85
2022-11-28T04:45:14.043Z,3.53
2022-11-28T04:47:41.209Z,3.20
2022-11-28T04:50:08.262Z,3.03
2022-11-28T04:53:08.500Z,3.33
2022-11-28T04:55:37.549Z,2.95
2022-11-28T04:58:13.371Z,3.30
2022-11-28T05:00:41.080Z,2.83
2022-11-28T05:03:09.590Z,3.00
2022-11-28T05:05:47.799Z,3.22
2022-11-28T05:08:15.213Z,3.10
2022-11-28T05:10:42.495Z,3.42
2022-11-28T05:13:09.472Z,3.07
2022-11-28T05:15:36.301Z,3.03
2022-11-28T05:18:03.228Z,2.90
2022-11-28T05:20:30.416Z,2.95
2022-11-28T05:22:56.970Z,3.17
2022-11-28T05:25:23.736Z,3.40
2022-11-28T05:27:50.192Z,3.55
2022-11-28T05:30:17.055Z,3.40
2022-11-28T05:32:43.581Z,3.53
2022-11-28T05:35:10.214Z,3.05
2022-11-28T05:37:36.944Z,3.00
2022-11-28T05:40:04.185Z,3.70
2022-11-28T05:42:35.398Z,3.38
2022-11-28T05:45:02.508Z,3.35
2022-11-28T05:47:33.388Z,2.80
2022-11-28T05:50:00.172Z,2.90
2022-11-28T05:52:29.696Z,3.20
2022-11-28T05:54:56.240Z,3.00
2022-11-28T05:57:22.741Z,3.10
2022-11-28T05:59:49.268Z,3.53
2022-11-28T06:02:15.805Z,3.03
2022-11-28T06:04:42.563Z,2.92
2022-11-28T06:07:09.192Z,2.60
2022-11-28T06:09:35.742Z,3.13
2022-11-28T06:12:03.082Z,2.80
2022-11-28T06:14:29.512Z,3.03
2022-11-28T06:16:56.123Z,3.20
2022-11-28T06:19:22.796Z,2.95
2022-11-28T06:21:50.664Z,3.20
2022-11-28T06:24:17.172Z,3.22
2022-11-28T06:26:43.777Z,3.27
2022-11-28T06:29:10.205Z,2.80
2022-11-28T06:31:36.885Z,3.00
2022-11-28T06:34:03.347Z,3.20
2022-11-28T06:36:30.922Z,3.63
2022-11-28T06:38:57.540Z,3.10
2022-11-28T06:41:24.125Z,2.85
2022-11-28T06:43:50.620Z,2.95
2022-11-28T06:46:20.421Z,3.30
2022-11-28T06:48:48.399Z,3.08
2022-11-28T06:51:15.608Z,3.10
2022-11-28T06:53:42.509Z,3.65
2022-11-28T06:56:11.957Z,3.63
2022-11-28T06:58:38.536Z,3.33
2022-11-28T07:01:10.809Z,3.80
2022-11-28T07:03:38.190Z,4.03
2022-11-28T07:06:05.682Z,3.72
2022-11-28T07:08:32.799Z,3.55
2022-11-28T07:11:07.924Z,3.83
2022-11-28T07:13:34.437Z,4.22
2022-11-28T07:16:01.002Z,4.17
2022-11-28T07:18:27.522Z,3.53
2022-11-28T07:20:53.961Z,3.35
2022-11-28T07:23:20.393Z,3.83
2022-11-28T07:25:47.145Z,3.67
2022-11-28T07:28:13.727Z,3.53
2022-11-28T07:30:40.220Z,3.97
2022-11-28T07:33:06.691Z,3.80
2022-11-28T07:35:33.887Z,3.85
2022-11-28T07:38:00.388Z,3.47
2022-11-28T07:40:26.901Z,3.83
2022-11-28T07:42:53.519Z,3.83
2022-11-28T07:45:19.944Z,3.80
2022-11-28T07:47:46.491Z,3.55
2022-11-28T07:50:12.944Z,3.78
2022-11-28T07:52:39.410Z,4.37
2022-11-28T07:55:06.316Z,4.07
2022-11-28T07:57:33.074Z,4.25
2022-11-28T07:59:59.584Z,4.50
2022-11-28T08:02:27.253Z,5.18
2022-11-28T08:04:55.387Z,4.97
2022-11-28T08:07:22.112Z,4.22
2022-11-28T08:09:48.704Z,4.63
2022-11-28T08:12:15.124Z,4.43
2022-11-28T08:14:42.005Z,5.03
2022-11-28T08:17:08.791Z,5.07
2022-11-28T08:19:35.691Z,4.97
2022-11-28T08:22:02.586Z,4.95
2022-11-28T08:24:29.153Z,4.50
2022-11-28T08:26:55.748Z,4.82
2022-11-28T08:29:22.224Z,4.40
2022-11-28T08:31:48.861Z,5.07
2022-11-28T08:34:15.488Z,4.68
2022-11-28T08:36:43.351Z,5.10
2022-11-28T08:39:27.000Z,4.53
2022-11-28T08:41:57.460Z,4.90
2022-11-28T08:44:24.210Z,4.15
2022-11-28T08:46:50.776Z,5.38
2022-11-28T08:49:17.435Z,5.38
2022-11-28T08:51:43.974Z,4.57
2022-11-28T08:54:10.654Z,5.10
2022-11-28T08:56:37.145Z,5.07
2022-11-28T08:59:04.370Z,4.88
2022-11-28T09:01:31.013Z,4.82
2022-11-28T09:03:58.925Z,4.97
2022-11-28T09:06:25.676Z,4.80
2022-11-28T09:08:53.559Z,4.95
2022-11-28T09:11:22.096Z,4.72
2022-11-28T09:13:49.223Z,5.20
2022-11-28T09:16:16.196Z,5.15
2022-11-28T09:18:43.381Z,4.73
2022-11-28T09:21:12.776Z,5.88
2022-11-28T09:23:41.220Z,5.50
2022-11-28T09:26:13.476Z,5.60
2022-11-28T09:28:40.082Z,4.82
2022-11-28T09:31:07.428Z,5.63
2022-11-28T09:33:35.115Z,5.72
2022-11-28T09:36:09.623Z,5.72
2022-11-28T09:38:36.895Z,5.78
2022-11-28T09:41:04.415Z,5.45
2022-11-28T09:43:38.342Z,5.73
2022-11-28T09:46:12.124Z,5.78
2022-11-28T09:48:45.670Z,5.80
2022-11-28T09:51:30.020Z,6.00
2022-11-28T09:54:13.402Z,6.25
2022-11-28T09:56:40.948Z,6.37
2022-11-28T09:59:24.323Z,6.43
2022-11-28T10:01:56.445Z,6.68
2022-11-28T10:04:33.470Z,7.22
2022-11-28T10:07:06.761Z,7.00
2022-11-28T10:09:33.156Z,7.23
2022-11-28T10:12:04.552Z,6.97
2022-11-28T10:14:46.297Z,8.00
2022-11-28T10:17:21.994Z,7.90
2022-11-28T10:20:02.798Z,8.05
2022-11-28T10:22:45.911Z,8.60
2022-11-28T10:25:28.438Z,8.18
2022-11-28T10:27:57.140Z,8.15
2022-11-28T10:30:26.371Z,9.65
2022-11-28T10:33:13.704Z,9.57
2022-11-28T10:35:49.736Z,8.77
2022-11-28T10:38:17.482Z,8.90
2022-11-28T10:40:57.942Z,9.13
2022-11-28T10:43:51.853Z,9.65
2022-11-28T10:46:27.831Z,9.80
2022-11-28T10:49:01.749Z,10.53
2022-11-28T10:51:47.128Z,10.48
2022-11-28T10:54:36.382Z,9.38
2022-11-28T10:57:14.185Z,9.82
2022-11-28T10:59:51.397Z,9.98
2022-11-28T11:02:30.068Z,10.57
2022-11-28T11:04:56.915Z,10.57
2022-11-28T11:07:30.843Z,10.68
2022-11-28T11:10:14.230Z,10.00
2022-11-28T11:12:41.285Z,10.70
2022-11-28T11:15:31.109Z,10.37
2022-11-28T11:18:01.077Z,10.95
2022-11-28T11:20:30.308Z,10.00
2022-11-28T11:22:59.610Z,10.35
2022-11-28T11:25:28.515Z,10.20
2022-11-28T11:27:58.016Z,10.70
2022-11-28T11:30:30.624Z,10.90
2022-11-28T11:32:59.681Z,10.48
2022-11-28T11:35:29.821Z,10.02
2022-11-28T11:38:22.651Z,11.00
2022-11-28T11:40:50.649Z,11.33
2022-11-28T11:43:26.661Z,11.30
2022-11-28T11:46:07.416Z,10.45
2022-11-28T11:48:42.813Z,10.25
2022-11-28T11:51:35.210Z,10.65
2022-11-28T11:54:19.117Z,9.33
2022-11-28T11:56:51.255Z,10.18
2022-11-28T11:59:40.972Z,9.95
2022-11-28T12:02:26.153Z,10.43
2022-11-28T12:05:09.937Z,10.63
2022-11-28T12:07:39.094Z,9.40
2022-11-28T12:10:12.416Z,10.18
2022-11-28T12:12:39.060Z,9.88
2022-11-28T12:15:15.536Z,9.88
2022-11-28T12:17:55.712Z,10.32
2022-11-28T12:20:43.955Z,9.73
2022-11-28T12:23:41.318Z,9.52
2022-11-28T12:26:16.842Z,10.35
2022-11-28T12:32:19.511Z,8.80
2022-11-28T12:35:14.138Z,8.23
2022-11-28T12:38:12.809Z,8.82
2022-11-28T12:41:07.028Z,8.93
2022-11-28T12:43:36.555Z,9.18
2022-11-28T12:46:18.603Z,8.90
2022-11-28T12:49:21.869Z,8.73
2022-11-28T12:52:07.190Z,9.57
2022-11-28T12:54:52.453Z,9.35
2022-11-28T12:57:48.404Z,9.52
2022-11-28T13:00:21.401Z,8.07
2022-11-28T13:03:04.164Z,9.37
2022-11-28T13:05:49.107Z,9.20
2022-11-28T13:08:49.959Z,9.45
2022-11-28T13:11:22.662Z,9.82
2022-11-28T13:14:26.658Z,9.88
2022-11-28T13:16:56.313Z,9.57
2022-11-28T13:19:43.994Z,11.52
2022-11-28T13:22:10.414Z,9.27
2022-11-28T13:25:19.099Z,10.10
2022-11-28T13:28:07.467Z,10.00
2022-11-28T13:30:45.732Z,9.60
2022-11-28T13:33:24.207Z,9.98
2022-11-28T13:35:52.540Z,10.48
2022-11-28T13:38:49.314Z,10.13
2022-11-28T13:44:46.170Z,9.40
2022-11-28T13:47:23.280Z,10.23
2022-11-28T13:49:49.838Z,11.02
2022-11-28T13:52:19.356Z,10.77
2022-11-28T13:54:55.482Z,10.15
2022-11-28T13:57:28.205Z,10.93
2022-11-28T14:00:19.470Z,10.68
2022-11-28T14:02:51.219Z,10.23
2022-11-28T14:05:41.595Z,9.80
2022-11-28T14:08:22.035Z,10.05
2022-11-28T14:11:07.315Z,10.47
2022-11-28T14:13:58.382Z,10.50
2022-11-28T14:16:53.359Z,10.00
2022-11-28T14:19:32.234Z,9.80
2022-11-28T14:22:20.568Z,9.80
2022-11-28T14:25:09.241Z,10.13
2022-11-28T14:27:39.848Z,10.02
2022-11-28T14:30:07.337Z,9.25
2022-11-28T14:32:38.413Z,9.32
2022-11-28T14:35:15.280Z,10.13
2022-11-28T14:37:55.138Z,8.70
2022-11-28T14:40:55.781Z,9.50
2022-11-28T14:43:42.513Z,8.48
2022-11-28T14:46:23.297Z,8.23
2022-11-28T14:48:58.921Z,8.55
2022-11-28T14:51:44.145Z,9.20
2022-11-28T14:54:28.427Z,8.57
2022-11-28T14:56:59.770Z,9.00
2022-11-28T14:59:37.052Z,8.00
2022-11-28T15:02:12.729Z,9.63
2022-11-28T15:04:57.481Z,8.30
2022-11-28T15:07:28.597Z,8.73
2022-11-28T15:10:05.758Z,8.57
2022-11-28T15:12:39.666Z,8.88
2022-11-28T15:15:12.749Z,9.35
2022-11-28T15:17:42.149Z,9.07
2022-11-28T15:20:34.144Z,8.90
2022-11-28T15:23:00.647Z,8.73
2022-11-28T15:25:30.256Z,8.88
2022-11-28T15:27:56.881Z,8.60
2022-11-28T15:30:26.766Z,10.07
2022-11-28T15:32:59.666Z,9.95
2022-11-28T15:35:26.931Z,9.98
2022-11-28T15:37:56.615Z,9.73
2022-11-28T15:40:31.193Z,10.38
2022-11-28T15:42:59.760Z,9.17
2022-11-28T15:45:32.264Z,9.25
2022-11-28T15:47:59.398Z,10.10
2022-11-28T15:50:29.088Z,9.32
2022-11-28T15:53:04.446Z,10.77
2022-11-28T15:55:33.338Z,9.93
2022-11-28T15:58:12.077Z,9.95
2022-11-28T16:00:44.016Z,10.27
2022-11-28T16:03:20.559Z,10.98
2022-11-28T16:05:48.852Z,11.50
2022-11-28T16:08:26.866Z,11.00
2022-11-28T16:10:53.521Z,11.18
2022-11-28T16:13:21.885Z,9.90
2022-11-28T16:15:50.481Z,10.55
2022-11-28T16:18:17.474Z,10.50
2022-11-28T16:20:44.326Z,10.33
2022-11-28T16:23:30.077Z,11.27
2022-11-28T16:26:05.236Z,9.57
2022-11-28T16:28:37.631Z,9.88
2022-11-28T16:31:19.287Z,10.13
2022-11-28T16:33:47.720Z,9.47
2022-11-28T16:36:21.996Z,9.90
2022-11-28T16:38:51.405Z,9.82
2022-11-28T16:41:25.523Z,9.68
2022-11-28T16:43:59.789Z,8.73
2022-11-28T16:46:40.021Z,9.00
2022-11-28T16:49:27.171Z,9.50
2022-11-28T16:52:21.404Z,8.57
2022-11-28T16:54:52.742Z,9.07
2022-11-28T16:57:20.336Z,9.10
2022-11-28T16:59:48.214Z,9.70
2022-11-28T17:02:16.217Z,9.40
2022-11-28T17:04:43.876Z,11.55
2022-11-28T17:07:13.970Z,8.75
2022-11-28T17:09:45.722Z,8.32
2022-11-28T17:12:21.679Z,10.90
2022-11-28T17:14:48.113Z,10.55
2022-11-28T17:17:16.296Z,11.32
2022-11-28T17:19:43.347Z,9.20
2022-11-28T17:22:17.046Z,10.23
2022-11-28T17:24:44.431Z,10.00
2022-11-28T17:27:16.152Z,11.57
2022-11-28T17:29:43.389Z,10.57
2022-11-28T17:32:14.020Z,10.52
2022-11-28T17:34:42.189Z,12.73
2022-11-28T17:37:09.572Z,16.90
2022-11-28T17:39:36.235Z,13.18
2022-11-28T17:42:02.709Z,11.05
2022-11-28T17:44:31.756Z,11.70
2022-11-28T17:47:00.667Z,12.63
2022-11-28T17:49:27.941Z,14.13
2022-11-28T17:51:55.835Z,16.77
2022-11-28T17:54:24.523Z,13.48
2022-11-28T17:56:52.932Z,16.42
2022-11-28T17:59:23.147Z,12.95
2022-11-28T18:01:50.543Z,11.93
2022-11-28T18:04:17.160Z,14.45
2022-11-28T18:06:45.121Z,25.40
2022-11-28T18:09:13.232Z,38.50
2022-11-28T18:11:41.629Z,18.95
2022-11-28T18:14:08.792Z,18.07
2022-11-28T18:16:39.694Z,8.90
2022-11-28T18:19:06.303Z,7.75
2022-11-28T18:21:32.917Z,7.32
2022-11-28T18:23:59.510Z,5.75
2022-11-28T18:26:26.780Z,4.70
2022-11-28T18:28:54.386Z,6.55
2022-11-28T18:31:24.733Z,7.95
2022-11-28T18:33:56.174Z,6.35
2022-11-28T18:36:27.460Z,5.88
2022-11-28T18:38:58.188Z,5.77
2022-11-28T18:41:25.355Z,5.07
2022-11-28T18:43:59.391Z,6.45
2022-11-28T18:46:26.568Z,6.50
2022-11-28T18:48:53.504Z,7.45
2022-11-28T18:51:25.685Z,10.07
2022-11-28T18:53:53.794Z,10.43
2022-11-28T18:56:21.413Z,9.18
2022-11-28T18:58:51.642Z,7.80
2022-11-28T19:01:22.143Z,8.88
2022-11-28T19:03:51.714Z,8.30
2022-11-28T19:06:18.931Z,6.30
2022-11-28T19:08:46.113Z,8.57
2022-11-28T19:11:15.229Z,8.90
2022-11-28T19:13:47.089Z,5.78
2022-11-28T19:16:18.822Z,4.80
2022-11-28T19:18:45.660Z,4.75
2022-11-28T19:21:18.860Z,6.75
2022-11-28T19:23:48.669Z,7.85
2022-11-28T19:26:17.160Z,7.43
2022-11-28T19:28:44.151Z,8.63
2022-11-28T19:31:22.773Z,8.52
2022-11-28T19:34:17.448Z,6.72
2022-11-28T19:36:50.083Z,5.70
2022-11-28T19:39:24.602Z,5.50
2022-11-28T19:41:53.149Z,6.57
2022-11-28T19:44:21.241Z,5.47
2022-11-28T19:46:48.103Z,5.68
2022-11-28T19:49:20.151Z,5.10
2022-11-28T19:51:47.246Z,6.45
2022-11-28T19:54:14.776Z,7.43
2022-11-28T19:56:41.787Z,6.47
2022-11-28T19:59:08.384Z,5.72
2022-11-28T20:01:35.007Z,10.60
2022-11-28T20:04:01.601Z,11.13
2022-11-28T20:06:30.519Z,10.83
2022-11-28T20:09:02.188Z,9.85
2022-11-28T20:11:31.879Z,12.35
2022-11-28T20:14:00.702Z,11.50
2022-11-28T20:16:29.216Z,11.75
2022-11-28T20:18:55.761Z,12.00
2022-11-28T20:21:22.223Z,13.93
2022-11-28T20:23:51.220Z,13.00
2022-11-28T20:26:19.833Z,13.00
2022-11-28T20:28:47.984Z,12.70
2022-11-28T20:31:20.342Z,18.87
2022-11-28T20:33:51.143Z,13.90
2022-11-28T20:36:20.000Z,11.88
2022-11-28T20:38:46.786Z,11.65
2022-11-28T20:41:15.617Z,10.80
2022-11-28T20:43:42.487Z,11.40
2022-11-28T20:46:14.744Z,10.43
2022-11-28T20:48:42.179Z,11.43
2022-11-28T20:51:17.248Z,10.88
2022-11-28T20:53:43.936Z,12.27
2022-11-28T20:56:19.075Z,11.57
2022-11-28T20:58:46.015Z,11.43
2022-11-28T21:01:18.183Z,12.02
2022-11-28T21:03:44.961Z,11.90
2022-11-28T21:06:11.890Z,12.02
2022-11-28T21:08:39.091Z,11.23
2022-11-28T21:11:30.543Z,12.07
2022-11-28T21:14:01.769Z,11.73
2022-11-28T21:16:31.369Z,12.50
2022-11-28T21:19:02.179Z,11.85
2022-11-28T21:21:31.197Z,12.03
2022-11-28T21:24:03.514Z,11.93
2022-11-28T21:26:39.128Z,12.68
2022-11-28T21:29:10.832Z,12.15
2022-11-28T21:31:41.952Z,12.00
2022-11-28T21:34:13.021Z,13.37
2022-11-28T21:36:39.877Z,12.93
2022-11-28T21:39:06.383Z,14.20
2022-11-28T21:41:33.364Z,13.88
2022-11-28T21:44:00.410Z,12.23
2022-11-28T21:46:27.995Z,13.47
2022-11-28T21:48:54.764Z,13.77
2022-11-28T21:51:24.257Z,13.65
2022-11-28T21:53:51.896Z,13.10
2022-11-28T21:56:18.629Z,12.85
2022-11-28T21:58:45.319Z,13.60
2022-11-28T22:01:13.340Z,13.52
2022-11-28T22:03:41.675Z,14.40
2022-11-28T22:06:14.083Z,15.45
2022-11-28T22:08:40.655Z,13.65
2022-11-28T22:11:11.098Z,14.63
2022-11-28T22:13:38.682Z,15.60
2022-11-28T22:16:19.849Z,14.02
2022-11-28T22:18:47.601Z,15.18
2022-11-28T22:24:04.912Z,15.50
2022-11-28T22:26:31.576Z,14.00
2022-11-28T22:29:01.259Z,14.75
2022-11-28T22:31:27.988Z,14.43
2022-11-28T22:33:54.551Z,14.82
2022-11-28T22:36:21.660Z,14.17
2022-11-28T22:38:49.573Z,13.85
2022-11-28T22:41:23.314Z,14.23
2022-11-28T22:43:56.554Z,13.23
2022-11-28T22:46:23.227Z,14.30
2022-11-28T22:48:50.640Z,14.90
2022-11-28T22:51:19.863Z,14.88
2022-11-28T22:53:46.357Z,15.65
2022-11-28T22:56:15.008Z,14.00
2022-11-28T22:58:44.428Z,14.95
2022-11-28T23:01:14.094Z,14.93
2022-11-28T23:03:40.612Z,15.35
2022-11-28T23:06:09.612Z,15.13
2022-11-28T23:08:36.334Z,16.10
2022-11-28T23:11:07.590Z,16.35
2022-11-28T23:13:35.572Z,15.73
2022-11-28T23:16:28.281Z,16.08
2022-11-28T23:18:56.489Z,16.63
2022-11-28T23:21:25.260Z,16.40
2022-11-28T23:23:52.395Z,15.68
2022-11-28T23:26:24.385Z,17.43
2022-11-28T23:28:51.494Z,15.90
2022-11-28T23:31:20.815Z,15.27
2022-11-28T23:33:48.424Z,15.38
2022-11-28T23:36:17.926Z,16.35
2022-11-28T23:38:45.960Z,16.30
2022-11-28T23:41:13.318Z,16.10
2022-11-28T23:43:40.212Z,15.07
2022-11-28T23:46:08.079Z,13.43
2022-11-28T23:48:34.808Z,14.77
2022-11-28T23:51:01.332Z,16.00
2022-11-28T23:53:27.939Z,15.32
2022-11-28T23:55:54.411Z,16.90
2022-11-28T23:58:21.043Z,16.48
